AirNav  
 
 953 users online  

F34 Firebaugh Airport
Firebaugh, California, USA


FAA INFORMATION EFFECTIVE 09 NOVEMBER 2017

Location

FAA Identifier: F34
Lat/Long: 36-51-35.9590N / 120-27-52.0830W
36-51.599317N / 120-27.868050W
36.8599886 / -120.4644675
(estimated)
Elevation: 157.2 ft. / 47.9 m (surveyed)
Variation: 16E (1980)
From city: 1 mile W of FIREBAUGH, CA
Time zone: UTC -8 (UTC -7 during Daylight Saving Time)
Zip code: 93622

Airport Operations

Airport use: Open to the public
Activation date: 11/1973
Control tower: no
ARTCC: OAKLAND CENTER
FSS: RANCHO MURIETA FLIGHT SERVICE STATION
NOTAMs facility: RIU (NOTAM-D service available)
Attendance: UNATNDD
Pattern altitude: 1007.2 ft. MSL
Wind indicator: lighted
Segmented circle: yes
Lights: ACTVT MIRL RY 12/30 AND VASI RY 30 - CTAF.
Beacon: white-green (lighted land airport)
Operates sunset to sunrise.

Airport Communications

CTAF: 122.9
NORCAL APPROACH: 120.95
NORCAL DEPARTURE: 120.95
WX ASOS at MAE (19 nm NE): 134.725 (559-674-1781)
  • COMMUNICATIONS PRVDD BY FRESNO RADIO ON FREQ 122.1R (PANOCHE RCO).

Nearby radio navigation aids

VOR radial/distance  VOR name  Freq  Var
PXNr044/17.4PANOCHE VORTAC112.6016E
HYPr173/21.8EL NIDO VOR/DME114.2015E
CZQr252/31.2CLOVIS VORTAC112.9015E

Airport Services

Parking: tiedowns
Airframe service: NONE
Powerplant service: NONE
Bottled oxygen: NONE
Bulk oxygen: NONE

Runway Information

Runway 12/30

Dimensions: 3102 x 60 ft. / 945 x 18 m
Surface: asphalt, in good condition
Weight bearing capacity: 
Single wheel: 12.0
Runway edge lights: medium intensity
RUNWAY 12  RUNWAY 30
Latitude: 36-51.794000N36-51.404617N
Longitude: 120-28.074217W120-27.661917W
Elevation: 156.9 ft.157.0 ft.
Traffic pattern: rightleft
Runway heading: 124 magnetic, 140 true304 magnetic, 320 true
Markings: basic, in fair conditionbasic, in fair condition
Visual slope indicator: 2-box VASI on left (3.00 degrees glide path)
Runway end identifier lights: nono
Touchdown point: yes, no lightsyes, no lights
Obstructions: 10 ft. road, 400 ft. from runway, 20:1 slope to clear
RWY 12 +2' BERM, 6' FENCE & 5' DITCH 80'-140' FM RWY END 125'L TO 125'R.
15 ft. road, 700 ft. from runway, 33:1 slope to clear

Airport Ownership and Management from official FAA records

Ownership: Publicly-owned
Owner: CITY OF FIREBAUGH
1133 P STREET
FIREBAUGH, CA 93622
Phone 559-659-2043
Manager: BEN GALLEGOS
1133 P STREET
FIREBAUGH, CA 93622
Phone 559-659-2043
CITY MGR. MAINTENANCE CONTACT PUBLIC WORKS, BEN GALLEGOS 559-659-2043

Airport Operational Statistics

Aircraft based on the field: 12
Single engine airplanes: 11
Multi engine airplanes: 1
    
Aircraft operations: avg 27/day *
60% local general aviation
40% transient general aviation
* for 12-month period ending 13 June 2017

Additional Remarks

FOR CD CTC NORCAL APCH AT 916-361-6874.

Instrument Procedures

NOTE: All procedures below are presented as PDF files. If you need a reader for these files, you should download the free Adobe Reader.

NOT FOR NAVIGATION. Please procure official charts for flight.
FAA instrument procedures published for use between 9 November 2017 at 0901Z and 7 December 2017 at 0900Z.

 
IAPs - Instrument Approach Procedures
RNAV (GPS)-B   download (133KB)
VOR/DME-A   download (151KB)
NOTE: Special Take-Off Minimums/Departure Procedures apply   download (128KB)

Other nearby airports with instrument procedures:

KMAE - Madera Municipal Airport (19 nm NE)
KLSN - Los Banos Municipal Airport (23 nm NW)
KMCE - Merced Regional Airport/Macready Field (26 nm N)
KMER - Castle Airport (32 nm N)
KFCH - Fresno Chandler Executive Airport (32 nm E)
 
Loc | Ops | Rwys | IFR | FBO | Links
Com | Nav | Svcs | Stats | Notes


 
Area around F34 (Firebaugh Airport)
 
Road maps at: MapQuest Bing Google
 
Aerial photo
WARNING: Photo may not be current or correct
Aerial photo of F34 (Firebaugh Airport)
Photo courtesy of David Sievert - Airphoto Designs
Photo taken 08-Oct-2006

Do you have a better or more recent aerial photo of Firebaugh Airport that you would like to share? If so, please send us your photo.

 
Sectional chart

 
Airport distance calculator
Flying to Firebaugh Airport? Find the distance to fly.

From to F34

Sunrise and sunset
Times for 18-Nov-2017
 Local
(UTC-8)
 Zulu
(UTC)
Morning civil twilight06:1714:17
Sunrise06:4414:44
Sunset16:5000:50
Evening civil twilight17:1801:18

Current date and time
Zulu (UTC)  18-Nov-2017 21:27:21
Local (UTC-8)  18-Nov-2017 13:27:21
 
METAR
KMAE 
18nm NE 
182053Z AUTO 00000KT 10SM CLR 16/07 A3019 RMK AO2 SLP222 T01610072 58027 TSNO
KMCE 
25nm N 
182053Z AUTO 00000KT 10SM CLR 16/06 A3018 RMK AO2 SLP219 T01560056 58026
KMER 
32nm N 
182045Z 00000KT 10SM SKC 18/06 A3019
KFCH 
32nm E 
182115Z AUTO 00000KT 10SM CLR 17/08 A3017 RMK A01
KFAT 
36nm E 
182053Z VRB03KT 10SM FEW060 17/07 A3019 RMK AO2 SLP221 T01670072 58021
TAF
KMCE 
25nm N 
181725Z 1818/1918 VRB04KT P6SM SKC FM190900 00000KT 3SM BR SKC
KMER 
32nm N 
181725Z 1818/1918 VRB04KT P6SM SKC FM190900 00000KT 3SM BR SKC
NOTAMs
Click for the latest NOTAMs
NOTAMs are issued by the DoD/FAA and will open in a separate window not controlled by AirNav.

 

 
 

Would you like to see your business listed on this page?

 If your business provides an interesting product or service to pilots, flight crews, aircraft, or users of the Firebaugh Airport, you should consider listing it here.  To start the listing process, click on the button below
 
Add a business
 

Other Pages about Firebaugh Airport

Update a link
 
Copyright © AirNav, LLC. All rights reserved. Privacy Policy  Contact